Time;durP1;ratioP1;P1;durP2;ratioP2;P2;SDS_P1;SDS_P2;PMS_P1;PMS_P2;Temp;Humidity;BMP_temperature;BMP_pressure;BME280_temperature;BME280_humidity;BME280_pressure;Samples;Min_cycle;Max_cycle;Signal;HPM_P1;HPM_P2
2023/01/04 00:01:03;;;;;;;6.63;4.15;;;;;;;;;;5079804;28;20089;-85
2023/01/04 00:03:31;;;;;;;5.35;3.90;;;;;;;;;;5079654;28;20057;-85
2023/01/04 00:05:58;;;;;;;10.05;4.53;;;;;;;;;;5074417;28;20027;-85
2023/01/04 00:08:24;;;;;;;4.80;4.20;;;;;;;;;;5081230;28;20020;-85
2023/01/04 00:10:50;;;;;;;7.82;3.88;;;;;;;;;;5078040;28;20470;-85
2023/01/04 00:13:16;;;;;;;5.00;3.95;;;;;;;;;;5076588;28;20270;-85
2023/01/04 00:15:43;;;;;;;6.97;4.70;;;;;;;;;;5078330;28;20063;-85
2023/01/04 00:18:09;;;;;;;5.72;4.40;;;;;;;;;;5079434;28;20063;-85
2023/01/04 00:20:35;;;;;;;10.73;4.30;;;;;;;;;;5078314;28;20024;-85
2023/01/04 00:23:01;;;;;;;5.22;4.20;;;;;;;;;;5091197;28;20106;-85
2023/01/04 00:25:27;;;;;;;5.88;4.18;;;;;;;;;;5078303;28;20705;-84
2023/01/04 00:27:54;;;;;;;5.93;3.92;;;;;;;;;;5091467;28;20370;-85
2023/01/04 00:30:20;;;;;;;5.95;4.30;;;;;;;;;;5078291;28;20024;-85
2023/01/04 00:32:46;;;;;;;8.68;4.88;;;;;;;;;;5079502;28;20024;-85
2023/01/04 00:35:12;;;;;;;8.80;5.10;;;;;;;;;;5081329;28;20178;-85
2023/01/04 00:37:38;;;;;;;7.38;4.63;;;;;;;;;;5077927;28;20024;-85
2023/01/04 00:40:05;;;;;;;7.22;4.85;;;;;;;;;;5089273;28;20027;-85
2023/01/04 00:42:31;;;;;;;6.82;4.95;;;;;;;;;;5078995;28;20119;-85
2023/01/04 00:44:57;;;;;;;6.93;5.22;;;;;;;;;;5093081;28;20032;-85
2023/01/04 00:47:23;;;;;;;5.13;4.13;;;;;;;;;;5074243;28;20111;-85
2023/01/04 00:49:50;;;;;;;5.85;4.38;;;;;;;;;;5080481;28;20102;-86
2023/01/04 00:52:16;;;;;;;6.47;4.65;;;;;;;;;;5074948;28;20030;-86
2023/01/04 00:54:42;;;;;;;6.60;5.20;;;;;;;;;;5093687;28;20036;-85
2023/01/04 00:57:08;;;;;;;5.95;4.43;;;;;;;;;;5075620;28;20032;-85
2023/01/04 00:59:34;;;;;;;5.63;4.40;;;;;;;;;;5077484;28;20032;-85
2023/01/04 01:02:00;;;;;;;6.50;4.75;;;;;;;;;;5078121;28;20020;-86
2023/01/04 01:04:27;;;;;;;8.23;4.75;;;;;;;;;;5080837;28;20028;-86
2023/01/04 01:06:53;;;;;;;7.05;4.68;;;;;;;;;;5076340;28;20024;-85
2023/01/04 01:09:22;;;;;;;6.45;4.88;;;;;;;;;;5087285;28;20025;-85
2023/01/04 01:11:49;;;;;;;8.57;5.28;;;;;;;;;;5078730;28;20042;-85
2023/01/04 01:14:20;;;;;;;6.60;4.90;;;;;;;;;;5073924;28;20020;-86
2023/01/04 01:16:46;;;;;;;11.57;4.93;;;;;;;;;;5079184;28;20105;-85
2023/01/04 01:19:13;;;;;;;6.82;5.00;;;;;;;;;;5079922;28;20032;-85
2023/01/04 01:21:39;;;;;;;7.65;4.90;;;;;;;;;;5074640;28;20143;-85
2023/01/04 01:24:06;;;;;;;9.32;5.22;;;;;;;;;;5073582;28;20028;-85
2023/01/04 01:26:32;;;;;;;7.38;4.97;;;;;;;;;;5080029;28;20098;-85
2023/01/04 01:28:59;;;;;;;5.90;4.25;;;;;;;;;;5080400;28;20024;-85
2023/01/04 01:31:27;;;;;;;9.18;5.07;;;;;;;;;;5079275;28;20036;-85
2023/01/04 01:33:54;;;;;;;5.63;4.47;;;;;;;;;;5078593;28;20092;-85
2023/01/04 01:36:22;;;;;;;7.18;4.78;;;;;;;;;;5076213;28;20119;-85
2023/01/04 01:38:48;;;;;;;5.88;4.40;;;;;;;;;;5077940;28;20111;-85
2023/01/04 01:41:19;;;;;;;6.72;4.50;;;;;;;;;;5093526;28;20350;-85
2023/01/04 01:43:53;;;;;;;10.23;5.13;;;;;;;;;;5075136;28;20115;-85
2023/01/04 01:46:22;;;;;;;8.15;4.78;;;;;;;;;;5076011;28;20102;-85
2023/01/04 01:48:48;;;;;;;7.70;5.03;;;;;;;;;;5081599;28;20485;-85
2023/01/04 01:51:16;;;;;;;7.85;5.07;;;;;;;;;;5079051;28;20031;-85
2023/01/04 01:53:44;;;;;;;6.25;4.43;;;;;;;;;;5080861;28;20044;-85
2023/01/04 01:56:10;;;;;;;7.15;4.60;;;;;;;;;;5079609;28;20130;-85
2023/01/04 01:58:43;;;;;;;9.27;4.80;;;;;;;;;;5078096;28;20031;-85
2023/01/04 02:01:10;;;;;;;5.82;4.68;;;;;;;;;;5074659;28;20482;-86
2023/01/04 02:03:38;;;;;;;5.50;4.90;;;;;;;;;;5081634;28;20058;-84
2023/01/04 02:06:07;;;;;;;6.93;4.88;;;;;;;;;;5080352;28;20131;-86
2023/01/04 02:08:33;;;;;;;6.88;4.40;;;;;;;;;;5078323;28;20076;-85
2023/01/04 02:10:59;;;;;;;7.32;4.80;;;;;;;;;;5091693;28;20020;-85
2023/01/04 02:14:25;;;;;;;9.18;5.05;;;;;;;;;;5076597;28;20111;-85
2023/01/04 02:16:16;;;;;;;8.00;4.40;;;;;;;;;;5077755;28;20059;-86
2023/01/04 02:18:51;;;;;;;7.90;4.85;;;;;;;;;;5074930;28;20424;-85
2023/01/04 02:21:22;;;;;;;7.22;4.43;;;;;;;;;;5076269;28;20505;-85
2023/01/04 02:23:51;;;;;;;10.15;4.55;;;;;;;;;;5079834;28;20566;-85
2023/01/04 02:26:40;;;;;;;6.18;4.40;;;;;;;;;;5079473;28;20028;-86
2023/01/04 02:29:19;;;;;;;6.10;4.50;;;;;;;;;;5073804;28;20532;-86
2023/01/04 02:31:48;;;;;;;8.82;4.70;;;;;;;;;;5079141;28;20123;-86
2023/01/04 02:34:30;;;;;;;6.78;4.70;;;;;;;;;;5097438;28;20043;-85
2023/01/04 02:37:17;;;;;;;13.35;4.15;;;;;;;;;;5073057;28;20032;-86
2023/01/04 02:39:58;;;;;;;7.05;4.40;;;;;;;;;;5080261;28;20075;-85
2023/01/04 02:44:51;;;;;;;6.63;4.28;;;;;;;;;;5090131;28;20133;-85
2023/01/04 02:45:11;;;;;;;6.15;4.20;;;;;;;;;;5079016;28;20435;-85
2023/01/04 02:50:30;;;;;;;5.70;4.22;;;;;;;;;;5080366;28;20554;-86
2023/01/04 02:53:17;;;;;;;6.00;4.50;;;;;;;;;;5081191;28;20036;-85
2023/01/04 02:56:01;;;;;;;5.72;3.92;;;;;;;;;;5083093;28;20024;-85
2023/01/04 02:58:37;;;;;;;5.90;4.47;;;;;;;;;;5080545;28;20077;-86
2023/01/04 03:06:50;;;;;;;4.82;4.32;;;;;;;;;;5082845;28;20043;-85
2023/01/04 03:09:20;;;;;;;6.30;4.25;;;;;;;;;;5078225;28;20119;-85
2023/01/04 03:14:38;;;;;;;6.60;4.90;;;;;;;;;;5077205;28;20142;-85
2023/01/04 03:17:06;;;;;;;6.57;4.10;;;;;;;;;;5086597;28;20115;-85
2023/01/04 03:19:53;;;;;;;5.75;4.53;;;;;;;;;;5086161;28;20027;-85
2023/01/04 03:36:20;;;;;;;5.30;4.15;;;;;;;;;;5081237;28;19911;-85
2023/01/04 03:50:40;;;;;;;6.47;4.72;;;;;;;;;;5083278;28;20071;-85
2023/01/04 03:53:07;;;;;;;9.82;4.78;;;;;;;;;;5072112;28;20072;-85
2023/01/04 03:55:34;;;;;;;6.32;4.00;;;;;;;;;;5084281;28;20052;-85
2023/01/04 03:58:01;;;;;;;5.35;4.40;;;;;;;;;;5072839;28;20123;-85
2023/01/04 04:00:27;;;;;;;5.78;4.32;;;;;;;;;;5077387;28;20032;-85
2023/01/04 04:02:53;;;;;;;7.45;4.32;;;;;;;;;;5079549;28;20065;-85
2023/01/04 04:10:51;;;;;;;5.22;4.00;;;;;;;;;;5077556;28;20496;-85
2023/01/04 04:13:17;;;;;;;5.40;4.13;;;;;;;;;;5079027;28;20570;-85
2023/01/04 04:15:43;;;;;;;8.43;4.53;;;;;;;;;;5078273;28;20047;-85
2023/01/04 04:18:10;;;;;;;7.30;4.10;;;;;;;;;;5081315;28;20042;-85
2023/01/04 04:20:36;;;;;;;6.13;4.43;;;;;;;;;;5077077;28;20016;-85
2023/01/04 04:23:02;;;;;;;6.95;4.50;;;;;;;;;;5072278;28;20107;-84
2023/01/04 04:25:28;;;;;;;7.32;4.07;;;;;;;;;;5081723;28;20154;-86
2023/01/04 04:27:55;;;;;;;7.75;4.53;;;;;;;;;;5076302;28;20024;-85
2023/01/04 04:30:21;;;;;;;22.88;11.52;;;;;;;;;;5079830;28;20034;-85
2023/01/04 04:32:47;;;;;;;6.38;4.13;;;;;;;;;;5076350;28;20566;-85
2023/01/04 04:35:13;;;;;;;4.72;3.85;;;;;;;;;;5075515;28;20103;-86
2023/01/04 04:37:39;;;;;;;6.32;4.22;;;;;;;;;;5077475;28;20034;-85
2023/01/04 04:40:06;;;;;;;7.90;4.72;;;;;;;;;;5070341;28;20067;-85
2023/01/04 04:42:33;;;;;;;11.82;6.47;;;;;;;;;;5086671;28;20031;-85
2023/01/04 04:44:59;;;;;;;5.93;4.40;;;;;;;;;;5077465;28;20510;-85
2023/01/04 04:47:25;;;;;;;6.40;4.00;;;;;;;;;;5090654;28;20042;-85
2023/01/04 04:49:53;;;;;;;6.30;4.03;;;;;;;;;;5060324;28;20101;-86
2023/01/04 04:52:19;;;;;;;10.65;4.40;;;;;;;;;;5075685;28;20035;-85
2023/01/04 04:54:45;;;;;;;7.63;4.32;;;;;;;;;;5079437;28;20174;-85
2023/01/04 04:57:11;;;;;;;9.63;5.35;;;;;;;;;;5077797;28;20040;-85
2023/01/04 04:59:37;;;;;;;7.32;5.22;;;;;;;;;;5077975;28;20402;-85
2023/01/04 05:02:03;;;;;;;7.93;4.20;;;;;;;;;;5077798;28;20020;-85
2023/01/04 05:04:30;;;;;;;7.97;4.68;;;;;;;;;;5077850;28;20070;-86
2023/01/04 05:06:56;;;;;;;6.45;4.30;;;;;;;;;;5089859;28;20117;-85
2023/01/04 05:09:22;;;;;;;6.53;4.20;;;;;;;;;;5074158;28;20556;-85
2023/01/04 05:14:33;;;;;;;7.97;4.43;;;;;;;;;;5071993;28;20517;-86
2023/01/04 05:16:59;;;;;;;8.85;4.68;;;;;;;;;;5078634;28;20024;-86
2023/01/04 05:19:25;;;;;;;7.53;4.57;;;;;;;;;;5086900;28;20071;-86
2023/01/04 05:21:51;;;;;;;8.18;4.60;;;;;;;;;;5078431;28;20028;-86
2023/01/04 05:24:18;;;;;;;8.68;4.57;;;;;;;;;;5071415;28;20296;-86
2023/01/04 05:26:44;;;;;;;7.13;4.28;;;;;;;;;;5073381;28;20032;-85
2023/01/04 05:30:49;;;;;;;6.57;4.35;;;;;;;;;;5078103;28;20513;-86
2023/01/04 05:31:56;;;;;;;6.15;4.22;;;;;;;;;;5072666;28;20452;-86
2023/01/04 05:34:22;;;;;;;5.57;4.63;;;;;;;;;;5088561;28;20484;-86
2023/01/04 05:36:48;;;;;;;8.00;4.43;;;;;;;;;;5071786;28;20020;-85
2023/01/04 05:39:15;;;;;;;7.50;4.18;;;;;;;;;;5077172;28;20640;-86
2023/01/04 05:44:25;;;;;;;5.55;4.45;;;;;;;;;;5079132;28;20039;-86
2023/01/04 05:46:52;;;;;;;5.70;4.40;;;;;;;;;;5075148;28;20055;-87
2023/01/04 05:49:18;;;;;;;5.43;4.03;;;;;;;;;;5075372;28;20474;-87
2023/01/04 05:51:44;;;;;;;7.00;4.22;;;;;;;;;;5069638;28;20045;-87
2023/01/04 05:54:11;;;;;;;7.07;4.47;;;;;;;;;;5070741;28;20093;-86
2023/01/04 05:56:38;;;;;;;6.30;4.45;;;;;;;;;;5073334;28;20110;-87
2023/01/04 05:59:04;;;;;;;7.65;3.90;;;;;;;;;;5076272;28;20038;-87
2023/01/04 06:01:30;;;;;;;10.68;4.90;;;;;;;;;;5073571;28;20787;-87
2023/01/04 06:04:05;;;;;;;5.95;4.50;;;;;;;;;;5076442;28;20042;-87
2023/01/04 06:06:31;;;;;;;4.97;4.20;;;;;;;;;;5090281;28;20032;-87
2023/01/04 06:08:57;;;;;;;6.50;4.40;;;;;;;;;;5069089;28;20107;-87
2023/01/04 06:11:24;;;;;;;6.20;4.57;;;;;;;;;;5055919;28;20033;-87
2023/01/04 06:13:50;;;;;;;7.35;4.03;;;;;;;;;;5057962;28;20036;-87
2023/01/04 06:16:16;;;;;;;7.70;4.22;;;;;;;;;;5057205;28;20028;-86
2023/01/04 06:18:42;;;;;;;5.88;4.28;;;;;;;;;;5059263;28;20444;-86
2023/01/04 06:21:08;;;;;;;7.43;4.72;;;;;;;;;;5062704;28;20028;-84
2023/01/04 06:23:34;;;;;;;4.95;3.90;;;;;;;;;;5055670;28;20029;-85
2023/01/04 06:26:01;;;;;;;10.27;4.60;;;;;;;;;;5056129;28;20163;-85
2023/01/04 06:28:27;;;;;;;5.65;4.40;;;;;;;;;;5055368;28;20132;-85
2023/01/04 06:30:53;;;;;;;4.32;3.88;;;;;;;;;;5057357;28;20021;-86
2023/01/04 06:33:19;;;;;;;7.90;4.47;;;;;;;;;;5062862;28;20115;-85
2023/01/04 06:35:52;;;;;;;6.88;4.57;;;;;;;;;;5049456;28;20021;-86
2023/01/04 06:38:19;;;;;;;7.18;4.40;;;;;;;;;;5052451;28;20050;-85
2023/01/04 06:40:45;;;;;;;6.50;4.00;;;;;;;;;;5058919;28;20029;-86
2023/01/04 06:43:11;;;;;;;5.70;4.20;;;;;;;;;;5061422;28;20040;-85
2023/01/04 06:45:37;;;;;;;28.23;5.63;;;;;;;;;;5057243;28;20082;-85
2023/01/04 06:48:04;;;;;;;5.65;4.53;;;;;;;;;;5053861;28;20547;-86
2023/01/04 06:50:34;;;;;;;7.30;3.88;;;;;;;;;;5066584;28;20115;-88
2023/01/04 06:53:05;;;;;;;7.93;5.07;;;;;;;;;;5044483;28;20029;-88
2023/01/04 06:55:34;;;;;;;6.53;4.30;;;;;;;;;;5068421;28;20024;-88
2023/01/04 06:58:00;;;;;;;9.70;4.82;;;;;;;;;;5057644;28;20044;-88
2023/01/04 07:00:27;;;;;;;9.73;4.55;;;;;;;;;;5064362;28;20466;-86
2023/01/04 07:02:53;;;;;;;5.93;4.90;;;;;;;;;;5065776;28;20032;-87
2023/01/04 07:05:19;;;;;;;6.85;4.65;;;;;;;;;;5062683;28;20425;-87
2023/01/04 07:07:45;;;;;;;8.05;4.25;;;;;;;;;;5061070;28;20016;-87
2023/01/04 07:10:12;;;;;;;6.50;5.03;;;;;;;;;;5062445;28;20478;-87
2023/01/04 07:12:38;;;;;;;11.48;4.70;;;;;;;;;;5056668;28;20025;-87
2023/01/04 07:15:05;;;;;;;6.90;4.68;;;;;;;;;;5069220;28;20047;-87
2023/01/04 07:17:32;;;;;;;8.23;4.70;;;;;;;;;;5058984;28;20039;-86
2023/01/04 07:19:58;;;;;;;5.85;4.65;;;;;;;;;;5060056;28;20056;-88
2023/01/04 07:22:25;;;;;;;6.30;4.90;;;;;;;;;;5066280;28;20148;-87
2023/01/04 07:24:51;;;;;;;8.35;5.25;;;;;;;;;;5061610;28;20039;-87
2023/01/04 07:27:17;;;;;;;6.38;4.75;;;;;;;;;;5056060;28;20020;-88
2023/01/04 07:29:43;;;;;;;6.97;5.07;;;;;;;;;;5060329;28;20016;-88
2023/01/04 07:32:10;;;;;;;7.47;5.13;;;;;;;;;;5061203;28;20031;-87
2023/01/04 07:34:38;;;;;;;7.55;4.88;;;;;;;;;;5054573;28;20031;-87
2023/01/04 07:37:04;;;;;;;7.03;4.55;;;;;;;;;;5066069;28;20048;-87
2023/01/04 07:39:30;;;;;;;6.30;4.63;;;;;;;;;;5067579;28;20114;-87
2023/01/04 07:41:56;;;;;;;5.82;4.57;;;;;;;;;;5063192;28;20374;-87
2023/01/04 07:44:25;;;;;;;6.57;4.63;;;;;;;;;;5063944;28;20020;-87
2023/01/04 07:46:51;;;;;;;8.48;4.78;;;;;;;;;;5064900;28;20046;-87
2023/01/04 07:49:17;;;;;;;5.32;4.18;;;;;;;;;;5066630;28;20475;-87
2023/01/04 07:51:44;;;;;;;8.27;5.00;;;;;;;;;;5057843;28;20553;-87
2023/01/04 07:54:11;;;;;;;5.15;4.35;;;;;;;;;;5057023;28;20087;-87
2023/01/04 07:56:37;;;;;;;7.05;4.78;;;;;;;;;;5056281;28;20119;-87
2023/01/04 07:59:10;;;;;;;7.38;5.43;;;;;;;;;;5068429;28;20111;-86
2023/01/04 08:01:37;;;;;;;13.70;7.38;;;;;;;;;;5064412;28;20663;-87
2023/01/04 08:04:07;;;;;;;13.07;8.68;;;;;;;;;;5060748;28;20395;-86
2023/01/04 08:06:34;;;;;;;13.57;9.38;;;;;;;;;;5064565;28;20117;-87
2023/01/04 08:09:00;;;;;;;22.25;11.85;;;;;;;;;;5053815;28;20158;-86
2023/01/04 08:11:26;;;;;;;18.15;11.32;;;;;;;;;;5070992;28;20485;-87
2023/01/04 08:13:52;;;;;;;18.30;10.60;;;;;;;;;;5059209;28;20119;-87
2023/01/04 08:16:30;;;;;;;18.17;10.77;;;;;;;;;;5065500;28;20059;-87
2023/01/04 08:19:07;;;;;;;17.27;11.00;;;;;;;;;;5052260;28;20036;-87
2023/01/04 08:21:34;;;;;;;14.55;9.55;;;;;;;;;;5060765;28;20028;-86
2023/01/04 08:24:01;;;;;;;13.07;8.73;;;;;;;;;;5065245;28;20052;-87
2023/01/04 08:26:27;;;;;;;10.07;6.93;;;;;;;;;;5056436;28;20024;-87
2023/01/04 08:28:55;;;;;;;9.30;5.50;;;;;;;;;;5056556;28;20093;-86
2023/01/04 08:31:24;;;;;;;10.43;4.78;;;;;;;;;;5061602;28;20036;-87
2023/01/04 08:33:51;;;;;;;7.70;4.85;;;;;;;;;;5063052;28;20047;-86
2023/01/04 08:36:27;;;;;;;7.65;5.40;;;;;;;;;;5065348;28;20024;-86
2023/01/04 08:38:58;;;;;;;7.55;5.47;;;;;;;;;;5056715;28;20075;-86
2023/01/04 08:41:24;;;;;;;6.85;5.15;;;;;;;;;;5056493;28;20029;-86
2023/01/04 08:43:50;;;;;;;7.85;5.55;;;;;;;;;;5064136;28;20024;-87
2023/01/04 08:46:16;;;;;;;6.88;4.95;;;;;;;;;;5064000;28;20494;-87
2023/01/04 08:48:43;;;;;;;6.40;4.82;;;;;;;;;;5060214;28;20048;-86
2023/01/04 08:51:13;;;;;;;6.60;4.90;;;;;;;;;;5060354;28;20109;-87
2023/01/04 08:53:39;;;;;;;8.65;4.90;;;;;;;;;;5060279;28;20156;-86
2023/01/04 08:56:06;;;;;;;10.15;5.78;;;;;;;;;;5064643;28;20050;-86
2023/01/04 08:58:33;;;;;;;11.18;5.68;;;;;;;;;;5057124;28;20036;-86
2023/01/04 09:01:10;;;;;;;9.82;5.82;;;;;;;;;;5053984;28;20040;-86
2023/01/04 09:03:36;;;;;;;6.60;5.35;;;;;;;;;;5056113;28;20303;-86
2023/01/04 09:06:07;;;;;;;8.20;6.20;;;;;;;;;;5062863;28;20021;-87
2023/01/04 09:08:34;;;;;;;7.28;5.88;;;;;;;;;;5062835;28;20062;-86
2023/01/04 09:11:07;;;;;;;11.02;6.60;;;;;;;;;;5059709;28;20495;-87
2023/01/04 09:13:35;;;;;;;10.15;7.28;;;;;;;;;;5051348;28;20514;-86
2023/01/04 09:16:05;;;;;;;8.02;6.50;;;;;;;;;;5059131;28;20021;-86
2023/01/04 09:18:32;;;;;;;8.32;6.25;;;;;;;;;;5064317;28;20055;-86
2023/01/04 09:21:00;;;;;;;8.05;6.13;;;;;;;;;;5060854;28;20012;-86
2023/01/04 09:23:27;;;;;;;12.52;7.53;;;;;;;;;;5059183;28;20495;-87
2023/01/04 09:25:54;;;;;;;9.13;6.65;;;;;;;;;;5045291;28;20552;-86
2023/01/04 09:28:20;;;;;;;8.20;5.95;;;;;;;;;;5059313;28;20024;-87
2023/01/04 09:30:46;;;;;;;9.88;5.85;;;;;;;;;;5064262;28;20051;-87
2023/01/04 09:33:12;;;;;;;6.13;5.53;;;;;;;;;;5058274;28;20035;-86
2023/01/04 09:35:39;;;;;;;7.93;5.40;;;;;;;;;;5059884;28;20845;-86
2023/01/04 09:38:05;;;;;;;6.00;5.30;;;;;;;;;;5054161;28;20071;-87
2023/01/04 09:40:32;;;;;;;6.20;4.93;;;;;;;;;;5059296;28;20056;-86
2023/01/04 09:43:00;;;;;;;5.88;4.97;;;;;;;;;;5059325;28;20048;-86
2023/01/04 09:45:27;;;;;;;8.30;5.50;;;;;;;;;;5060410;28;20095;-87
2023/01/04 09:48:14;;;;;;;8.15;4.80;;;;;;;;;;5053754;28;20020;-86
2023/01/04 09:50:45;;;;;;;8.20;5.25;;;;;;;;;;5058532;28;20085;-86
2023/01/04 09:53:15;;;;;;;5.65;5.00;;;;;;;;;;5055131;28;20048;-86
2023/01/04 09:55:48;;;;;;;6.68;5.35;;;;;;;;;;5061089;28;20016;-86
2023/01/04 09:58:20;;;;;;;6.13;4.70;;;;;;;;;;5052952;28;20128;-88
2023/01/04 10:00:50;;;;;;;8.10;4.93;;;;;;;;;;5065484;28;20208;-88
2023/01/04 10:03:29;;;;;;;8.38;5.05;;;;;;;;;;5059043;28;20332;-87
2023/01/04 10:05:56;;;;;;;7.95;4.35;;;;;;;;;;5062141;28;20683;-87
2023/01/04 10:08:22;;;;;;;6.00;4.93;;;;;;;;;;5058136;28;20029;-87
2023/01/04 10:10:57;;;;;;;7.40;4.80;;;;;;;;;;5060985;28;20501;-87
2023/01/04 10:13:29;;;;;;;5.82;4.43;;;;;;;;;;5066211;28;20029;-87
2023/01/04 10:16:04;;;;;;;7.70;5.05;;;;;;;;;;5066076;28;20051;-87
2023/01/04 10:18:41;;;;;;;22.05;12.75;;;;;;;;;;5052631;28;20029;-87
2023/01/04 10:21:23;;;;;;;17.92;9.93;;;;;;;;;;5060341;28;20099;-87
2023/01/04 10:23:56;;;;;;;19.17;11.85;;;;;;;;;;5058989;28;20028;-87
2023/01/04 10:26:28;;;;;;;20.30;11.15;;;;;;;;;;5063649;28;20559;-90
2023/01/04 10:29:00;;;;;;;60.10;29.23;;;;;;;;;;5064157;28;20021;-87
2023/01/04 10:31:36;;;;;;;82.47;39.83;;;;;;;;;;5061515;28;20072;-87
2023/01/04 10:34:18;;;;;;;96.07;42.00;;;;;;;;;;5063933;28;20028;-87
2023/01/04 10:36:46;;;;;;;107.63;46.60;;;;;;;;;;5062925;28;20048;-87
2023/01/04 10:39:20;;;;;;;114.95;47.58;;;;;;;;;;5058933;28;20041;-87
2023/01/04 10:41:59;;;;;;;81.53;32.67;;;;;;;;;;5063173;28;20429;-87
2023/01/04 10:44:36;;;;;;;67.32;30.33;;;;;;;;;;5061895;28;20444;-87
2023/01/04 10:47:02;;;;;;;43.85;18.25;;;;;;;;;;5065535;28;20115;-87
2023/01/04 10:49:34;;;;;;;44.75;23.55;;;;;;;;;;5063435;28;20032;-87
2023/01/04 10:52:06;;;;;;;23.40;12.60;;;;;;;;;;5065478;28;20123;-88
2023/01/04 10:54:35;;;;;;;15.05;10.82;;;;;;;;;;5055768;28;20053;-87
2023/01/04 10:57:20;;;;;;;17.60;10.98;;;;;;;;;;5067600;28;20046;-86
2023/01/04 11:00:10;;;;;;;9.40;6.90;;;;;;;;;;5061521;28;20032;-87
2023/01/04 11:02:52;;;;;;;9.48;6.30;;;;;;;;;;5026234;28;20151;-87
2023/01/04 11:05:19;;;;;;;12.82;6.07;;;;;;;;;;5058427;28;20025;-87
2023/01/04 11:07:45;;;;;;;13.55;7.43;;;;;;;;;;5054254;28;20106;-87
2023/01/04 11:10:18;;;;;;;17.27;7.22;;;;;;;;;;5052346;28;20033;-87
2023/01/04 11:12:44;;;;;;;9.52;6.45;;;;;;;;;;5061530;28;20023;-87
2023/01/04 11:15:11;;;;;;;17.60;8.70;;;;;;;;;;5058794;28;20029;-87
2023/01/04 11:17:37;;;;;;;19.65;9.85;;;;;;;;;;5059741;28;20190;-87
2023/01/04 11:20:04;;;;;;;30.50;15.27;;;;;;;;;;5071358;28;20050;-87
2023/01/04 11:22:36;;;;;;;30.70;16.33;;;;;;;;;;5063368;28;20480;-87
2023/01/04 11:25:02;;;;;;;;;;;;;;;;;;5066220;28;20070;-87
2023/01/04 11:27:31;;;;;;;41.70;16.73;;;;;;;;;;5056750;28;19944;-86
2023/01/04 11:30:03;;;;;;;49.00;21.30;;;;;;;;;;5060329;28;20155;-87
2023/01/04 11:32:33;;;;;;;67.72;29.45;;;;;;;;;;5057653;28;20064;-87
2023/01/04 11:34:59;;;;;;;74.55;39.58;;;;;;;;;;5063482;28;20031;-87
2023/01/04 11:37:32;;;;;;;46.38;27.30;;;;;;;;;;5056450;28;20490;-87
2023/01/04 11:40:17;;;;;;;40.05;20.90;;;;;;;;;;5063835;28;20024;-93
2023/01/04 11:42:49;;;;;;;26.92;14.10;;;;;;;;;;5066821;28;20482;-90
2023/01/04 11:45:28;;;;;;;30.55;17.05;;;;;;;;;;5071098;28;20026;-90
2023/01/04 11:47:55;;;;;;;42.97;22.27;;;;;;;;;;5064907;28;20020;-89
2023/01/04 11:50:41;;;;;;;58.58;29.20;;;;;;;;;;5065614;28;20021;-90
2023/01/04 11:53:23;;;;;;;48.47;20.88;;;;;;;;;;5061976;28;20612;-87
2023/01/04 11:55:49;;;;;;;32.75;16.58;;;;;;;;;;5063474;28;20024;-87
2023/01/04 11:58:16;;;;;;;23.17;13.00;;;;;;;;;;5055346;28;20076;-87
2023/01/04 12:00:50;;;;;;;26.48;13.60;;;;;;;;;;5056827;28;20025;-86
2023/01/04 12:03:17;;;;;;;26.55;15.13;;;;;;;;;;5062877;28;20028;-86
2023/01/04 12:05:44;;;;;;;46.63;22.67;;;;;;;;;;5068322;28;20048;-87
2023/01/04 12:08:29;;;;;;;38.80;20.30;;;;;;;;;;5061798;28;20123;-86
2023/01/04 12:10:55;;;;;;;46.13;20.83;;;;;;;;;;5064915;28;20016;-85
2023/01/04 12:13:22;;;;;;;25.70;14.88;;;;;;;;;;5062125;28;20040;-86
2023/01/04 12:16:06;;;;;;;17.52;10.63;;;;;;;;;;5063274;28;20183;-87
2023/01/04 12:18:35;;;;;;;22.33;13.57;;;;;;;;;;5059541;28;20601;-87
2023/01/04 12:21:02;;;;;;;33.05;14.68;;;;;;;;;;5067089;28;20360;-88
2023/01/04 12:23:28;;;;;;;22.40;12.07;;;;;;;;;;5054564;28;20123;-86
2023/01/04 12:25:55;;;;;;;21.02;12.43;;;;;;;;;;5062622;28;20025;-86
2023/01/04 12:28:52;;;;;;;21.05;12.02;;;;;;;;;;5065679;28;20399;-86
2023/01/04 12:31:19;;;;;;;20.65;9.70;;;;;;;;;;5049968;28;20115;-87
2023/01/04 12:33:46;;;;;;;10.02;6.35;;;;;;;;;;5057622;28;20049;-87
2023/01/04 12:36:13;;;;;;;11.45;6.25;;;;;;;;;;5057450;28;20376;-87
2023/01/04 12:38:52;;;;;;;8.15;6.03;;;;;;;;;;5063137;28;20039;-88
2023/01/04 12:41:19;;;;;;;7.95;5.45;;;;;;;;;;5061829;28;20021;-87
2023/01/04 12:43:46;;;;;;;8.10;5.13;;;;;;;;;;5052687;28;20025;-87
2023/01/04 12:49:28;;;;;;;8.80;5.68;;;;;;;;;;5061336;28;20540;-87
2023/01/04 12:52:10;;;;;;;5.63;4.85;;;;;;;;;;5057912;28;20050;-87
2023/01/04 12:54:49;;;;;;;6.80;4.90;;;;;;;;;;5055445;28;20055;-86
2023/01/04 12:57:15;;;;;;;7.38;5.78;;;;;;;;;;5047537;28;20037;-87
2023/01/04 12:59:58;;;;;;;9.20;5.53;;;;;;;;;;5050293;28;20514;-87
2023/01/04 13:02:24;;;;;;;6.60;5.30;;;;;;;;;;5059836;28;20031;-86
2023/01/04 13:04:52;;;;;;;6.88;5.30;;;;;;;;;;5051216;28;20032;-87
2023/01/04 13:07:42;;;;;;;6.50;5.40;;;;;;;;;;5058130;28;20031;-87
2023/01/04 13:10:20;;;;;;;17.20;9.63;;;;;;;;;;5042605;28;20056;-87
2023/01/04 13:12:53;;;;;;;368.88;149.52;;;;;;;;;;5062439;28;20016;-86
2023/01/04 13:15:37;;;;;;;311.08;128.45;;;;;;;;;;5063447;28;20020;-87
2023/01/04 13:18:19;;;;;;;71.95;29.67;;;;;;;;;;5061758;28;20124;-87
2023/01/04 13:20:45;;;;;;;23.70;10.77;;;;;;;;;;5053129;28;20483;-87
2023/01/04 13:23:13;;;;;;;18.90;7.97;;;;;;;;;;5060637;28;20032;-86
2023/01/04 13:25:39;;;;;;;9.40;6.45;;;;;;;;;;5056527;28;20479;-86
2023/01/04 13:28:05;;;;;;;9.85;6.32;;;;;;;;;;5056012;28;20043;-86
2023/01/04 13:30:40;;;;;;;7.25;5.63;;;;;;;;;;5055180;28;20046;-86
2023/01/04 13:33:09;;;;;;;9.68;5.40;;;;;;;;;;5059586;28;20659;-87
2023/01/04 13:35:36;;;;;;;6.88;4.95;;;;;;;;;;5058523;28;20052;-87
2023/01/04 13:38:02;;;;;;;8.20;5.90;;;;;;;;;;5062169;28;20037;-86
2023/01/04 13:40:28;;;;;;;8.93;5.22;;;;;;;;;;5053244;28;20056;-86
2023/01/04 13:43:04;;;;;;;7.95;6.10;;;;;;;;;;5050527;28;20230;-86
2023/01/04 13:45:39;;;;;;;10.57;6.25;;;;;;;;;;5062125;28;20162;-87
2023/01/04 13:48:09;;;;;;;7.70;5.35;;;;;;;;;;5057292;28;20021;-86
2023/01/04 13:50:39;;;;;;;6.18;5.28;;;;;;;;;;5058308;28;20021;-87
2023/01/04 13:53:05;;;;;;;8.70;5.85;;;;;;;;;;5052234;28;20024;-86
2023/01/04 13:55:33;;;;;;;8.68;6.00;;;;;;;;;;5054746;28;20397;-87
2023/01/04 13:58:00;;;;;;;8.70;6.03;;;;;;;;;;5058818;28;20400;-87
2023/01/04 14:00:30;;;;;;;7.47;5.88;;;;;;;;;;5057630;28;20093;-86
2023/01/04 14:03:05;;;;;;;9.63;5.50;;;;;;;;;;5054274;28;20082;-87
2023/01/04 14:05:32;;;;;;;7.53;5.57;;;;;;;;;;5054922;28;20390;-87
2023/01/04 14:07:58;;;;;;;7.95;6.05;;;;;;;;;;5061906;28;20501;-86
2023/01/04 14:10:24;;;;;;;6.75;5.85;;;;;;;;;;5063232;28;20119;-87
2023/01/04 14:12:50;;;;;;;8.48;5.75;;;;;;;;;;5052277;28;20028;-87
2023/01/04 14:15:24;;;;;;;9.27;5.70;;;;;;;;;;5060219;28;20042;-87
2023/01/04 14:17:51;;;;;;;8.00;5.82;;;;;;;;;;5056803;28;20474;-86
2023/01/04 14:20:23;;;;;;;8.02;5.90;;;;;;;;;;5076985;28;20107;-87
2023/01/04 14:22:50;;;;;;;;;;;;;;;;;;5073796;28;20021;-87
2023/01/04 14:25:28;;;;;;;7.57;6.03;;;;;;;;;;5055253;28;20293;-87
2023/01/04 14:28:15;;;;;;;8.20;6.30;;;;;;;;;;5049181;28;20140;-87
2023/01/04 14:30:41;;;;;;;8.73;6.05;;;;;;;;;;5059338;28;20148;-87
2023/01/04 14:33:10;;;;;;;8.70;6.90;;;;;;;;;;5062984;28;20078;-86
2023/01/04 14:35:36;;;;;;;16.13;6.97;;;;;;;;;;5054594;28;20539;-87
2023/01/04 14:38:04;;;;;;;12.80;8.15;;;;;;;;;;5056283;28;20047;-87
2023/01/04 14:40:30;;;;;;;10.75;7.85;;;;;;;;;;5060239;28;20111;-87
2023/01/04 14:42:57;;;;;;;17.02;9.82;;;;;;;;;;5062116;28;20366;-86
2023/01/04 14:45:23;;;;;;;18.65;11.88;;;;;;;;;;5061283;28;20048;-87
2023/01/04 14:47:50;;;;;;;19.08;11.80;;;;;;;;;;5051371;28;20135;-86
2023/01/04 14:50:16;;;;;;;19.30;11.73;;;;;;;;;;5052907;28;20063;-87
2023/01/04 14:52:50;;;;;;;15.60;11.25;;;;;;;;;;5051782;28;20058;-87
2023/01/04 14:55:16;;;;;;;15.13;10.45;;;;;;;;;;5068905;28;20554;-88
2023/01/04 14:57:44;;;;;;;12.80;9.68;;;;;;;;;;5054560;28;20179;-87
2023/01/04 15:00:14;;;;;;;13.95;9.48;;;;;;;;;;5056345;28;20017;-88
2023/01/04 15:02:40;;;;;;;12.55;8.90;;;;;;;;;;5052435;28;20114;-88
2023/01/04 15:05:07;;;;;;;11.93;9.25;;;;;;;;;;5056480;28;20076;-88
2023/01/04 15:07:38;;;;;;;13.70;8.77;;;;;;;;;;5064592;28;20054;-87
2023/01/04 15:10:06;;;;;;;10.70;8.07;;;;;;;;;;5058612;28;20025;-87
2023/01/04 15:12:32;;;;;;;10.35;7.85;;;;;;;;;;5048950;28;20029;-87
2023/01/04 15:14:58;;;;;;;14.05;8.48;;;;;;;;;;5064596;28;20060;-87
2023/01/04 15:17:25;;;;;;;14.43;7.70;;;;;;;;;;5066725;28;20024;-87
2023/01/04 15:19:51;;;;;;;9.68;7.22;;;;;;;;;;5060929;28;20103;-87
2023/01/04 15:22:17;;;;;;;8.20;7.15;;;;;;;;;;5058294;28;20067;-87
2023/01/04 15:24:43;;;;;;;9.50;6.95;;;;;;;;;;5058761;28;20020;-87
2023/01/04 15:27:09;;;;;;;9.40;6.97;;;;;;;;;;5063240;28;20569;-87
2023/01/04 15:29:35;;;;;;;8.57;6.75;;;;;;;;;;5067283;28;20145;-87
2023/01/04 15:32:02;;;;;;;9.75;7.50;;;;;;;;;;5056109;28;20455;-87
2023/01/04 15:34:28;;;;;;;11.18;8.10;;;;;;;;;;5058582;28;20051;-87
2023/01/04 15:36:54;;;;;;;8.60;6.97;;;;;;;;;;5064386;28;20028;-87
2023/01/04 15:39:20;;;;;;;10.57;7.18;;;;;;;;;;5060208;28;20496;-86
2023/01/04 15:44:31;;;;;;;9.52;7.60;;;;;;;;;;5054838;28;20130;-87